Time;durP1;ratioP1;P1;durP2;ratioP2;P2;SDS_P1;SDS_P2;PMS_P1;PMS_P2;Temp;Humidity;BMP_temperature;BMP_pressure;BME280_temperature;BME280_humidity;BME280_pressure;Samples;Min_cycle;Max_cycle;Signal;HPM_P1;HPM_P2
2021/06/13 00:00:39;;;;;;;20.00;18.40;;;11.10;99.90;;;;;;5035990;28;20460;-75
2021/06/13 00:03:06;;;;;;;21.70;19.40;;;11.00;99.90;;;;;;5029748;28;20506;-74
2021/06/13 00:05:32;;;;;;;21.80;19.57;;;11.00;99.90;;;;;;5038356;28;21167;-74
2021/06/13 00:07:58;;;;;;;21.30;19.30;;;10.90;99.90;;;;;;5034504;28;20478;-74
2021/06/13 00:10:25;;;;;;;21.73;19.70;;;10.90;99.90;;;;;;5037226;28;20463;-75
2021/06/13 00:12:52;;;;;;;20.37;18.87;;;10.80;99.90;;;;;;5030217;28;20969;-74
2021/06/13 00:15:23;;;;;;;24.00;20.97;;;10.80;99.90;;;;;;5034614;28;20458;-77
2021/06/13 00:17:50;;;;;;;21.57;19.20;;;10.80;99.90;;;;;;5035464;28;20468;-74
2021/06/13 00:20:21;;;;;;;21.47;19.67;;;10.80;99.90;;;;;;5037529;28;20465;-74
2021/06/13 00:22:47;;;;;;;21.70;19.60;;;10.70;99.90;;;;;;5034374;28;20494;-76
2021/06/13 00:25:14;;;;;;;22.60;20.40;;;10.70;99.90;;;;;;5032831;28;20476;-74
2021/06/13 00:27:41;;;;;;;21.63;19.80;;;10.70;99.90;;;;;;5037256;28;20472;-75
2021/06/13 00:30:11;;;;;;;22.77;20.87;;;10.60;99.90;;;;;;5032231;28;20484;-75
2021/06/13 00:32:39;;;;;;;23.80;21.60;;;10.60;99.90;;;;;;5032615;28;20464;-74
2021/06/13 00:35:07;;;;;;;22.57;20.37;;;10.60;99.90;;;;;;5033039;28;20474;-77
2021/06/13 00:37:34;;;;;;;21.37;19.63;;;10.60;99.90;;;;;;5028128;28;20550;-75
2021/06/13 00:40:00;;;;;;;22.73;20.60;;;10.60;99.90;;;;;;5037309;28;20470;-76
2021/06/13 00:42:27;;;;;;;22.53;20.43;;;10.50;99.90;;;;;;5036407;28;20498;-75
2021/06/13 00:44:53;;;;;;;22.97;20.83;;;10.50;99.90;;;;;;5038661;28;20525;-76
2021/06/13 00:47:20;;;;;;;22.27;20.37;;;10.40;99.90;;;;;;5039506;28;20472;-77
2021/06/13 00:49:48;;;;;;;21.23;19.40;;;10.40;99.90;;;;;;5033667;28;20475;-74
2021/06/13 00:52:14;;;;;;;22.87;20.37;;;10.40;99.90;;;;;;5034420;28;20498;-74
2021/06/13 00:54:41;;;;;;;25.03;21.60;;;10.30;99.90;;;;;;5033794;28;20678;-75
2021/06/13 00:57:07;;;;;;;22.47;20.30;;;10.20;99.90;;;;;;5035101;28;21171;-74
2021/06/13 00:59:34;;;;;;;22.80;20.80;;;10.20;99.90;;;;;;5032990;28;20470;-74
2021/06/13 01:02:00;;;;;;;23.37;21.27;;;10.20;99.90;;;;;;5036614;28;20490;-74
2021/06/13 01:04:27;;;;;;;24.83;22.10;;;10.20;99.90;;;;;;5033728;28;20460;-74
2021/06/13 01:07:02;;;;;;;22.03;20.20;;;10.30;99.90;;;;;;5035439;28;20506;-74
2021/06/13 01:09:33;;;;;;;22.07;20.27;;;10.30;99.90;;;;;;5031842;28;20878;-78
2021/06/13 01:12:06;;;;;;;23.30;20.87;;;10.40;99.90;;;;;;5042349;28;20475;-74
2021/06/13 01:14:38;;;;;;;23.10;20.70;;;10.40;99.90;;;;;;5041133;28;20463;-74
2021/06/13 01:17:12;;;;;;;22.50;20.30;;;10.40;99.90;;;;;;5036008;28;20575;-76
2021/06/13 01:19:46;;;;;;;24.90;22.40;;;10.30;99.90;;;;;;5039543;28;20464;-75
2021/06/13 01:22:30;;;;;;;21.87;20.20;;;10.10;99.90;;;;;;5036903;28;20494;-74
2021/06/13 01:25:06;;;;;;;23.57;21.37;;;10.10;99.90;;;;;;5033983;28;20978;-77
2021/06/13 01:27:50;;;;;;;22.63;20.50;;;10.00;99.90;;;;;;5031715;28;20463;-74
2021/06/13 01:30:18;;;;;;;25.40;22.00;;;9.90;99.90;;;;;;5037487;28;21011;-77
2021/06/13 01:32:44;;;;;;;23.23;21.33;;;9.80;99.90;;;;;;5036668;28;20467;-74
2021/06/13 01:35:16;;;;;;;25.17;22.90;;;9.80;99.90;;;;;;5036264;28;20962;-74
2021/06/13 01:37:48;;;;;;;24.90;22.80;;;9.70;99.90;;;;;;5039083;28;20906;-78
2021/06/13 01:40:16;;;;;;;24.57;22.30;;;9.70;99.90;;;;;;5036366;28;20575;-76
2021/06/13 01:42:48;;;;;;;23.93;21.43;;;9.70;99.90;;;;;;5038438;28;20506;-76
2021/06/13 01:45:17;;;;;;;27.07;22.97;;;9.70;99.90;;;;;;5042200;28;20516;-74
2021/06/13 01:47:46;;;;;;;27.57;22.90;;;9.70;99.90;;;;;;5031748;28;20554;-74
2021/06/13 01:50:13;;;;;;;25.17;22.57;;;9.70;99.90;;;;;;5039214;28;20493;-75
2021/06/13 01:52:39;;;;;;;26.37;22.47;;;9.60;99.90;;;;;;5034728;28;20469;-77
2021/06/13 01:55:07;;;;;;;24.57;22.50;;;9.60;99.90;;;;;;5040007;28;20466;-75
2021/06/13 01:57:34;;;;;;;25.47;22.23;;;9.60;99.90;;;;;;5039894;28;21016;-75
2021/06/13 02:00:05;;;;;;;25.47;23.17;;;9.50;99.90;;;;;;5039559;28;20477;-74
2021/06/13 02:02:32;;;;;;;25.60;22.83;;;9.60;99.90;;;;;;5034317;28;20931;-76
2021/06/13 02:05:01;;;;;;;26.60;23.10;;;9.60;99.90;;;;;;5040245;28;20709;-74
2021/06/13 02:07:28;;;;;;;29.10;23.13;;;9.60;99.90;;;;;;5036016;28;20707;-76
2021/06/13 02:09:55;;;;;;;26.57;23.60;;;9.60;99.90;;;;;;5041622;28;20464;-74
2021/06/13 02:12:21;;;;;;;24.53;22.47;;;9.50;99.90;;;;;;5040517;28;20473;-74
2021/06/13 02:14:48;;;;;;;26.07;23.43;;;9.40;99.90;;;;;;5040273;28;20477;-73
2021/06/13 02:17:16;;;;;;;25.90;22.70;;;9.40;99.90;;;;;;5036656;28;20531;-74
2021/06/13 02:19:45;;;;;;;26.57;23.77;;;9.40;99.90;;;;;;5036236;28;20463;-76
2021/06/13 02:22:16;;;;;;;24.77;22.57;;;9.30;99.90;;;;;;5038545;28;20498;-74
2021/06/13 02:24:43;;;;;;;25.43;22.93;;;9.30;99.90;;;;;;5037810;28;20456;-76
2021/06/13 02:27:14;;;;;;;26.60;24.37;;;9.30;99.90;;;;;;5037204;28;20569;-74
2021/06/13 02:29:42;;;;;;;27.40;24.57;;;9.30;99.90;;;;;;5035707;28;21116;-75
2021/06/13 02:32:10;;;;;;;27.20;24.63;;;9.20;99.90;;;;;;5040354;28;20460;-75
2021/06/13 02:34:38;;;;;;;27.40;24.70;;;9.20;99.90;;;;;;5036497;28;20463;-74
2021/06/13 02:37:07;;;;;;;27.67;24.97;;;9.10;99.90;;;;;;5039281;28;20471;-74
2021/06/13 02:39:35;;;;;;;26.90;24.20;;;9.10;99.90;;;;;;5033905;28;20451;-78
2021/06/13 02:42:01;;;;;;;30.30;24.67;;;9.10;99.90;;;;;;5038660;28;20496;-77
2021/06/13 02:44:28;;;;;;;28.07;24.33;;;9.10;99.90;;;;;;5039318;28;20495;-76
2021/06/13 02:46:54;;;;;;;28.77;25.87;;;9.00;99.90;;;;;;5038847;28;20462;-75
2021/06/13 02:49:21;;;;;;;26.57;24.07;;;8.90;99.90;;;;;;5031932;28;20544;-74
2021/06/13 02:51:55;;;;;;;29.67;24.70;;;8.90;99.90;;;;;;5035959;28;20470;-75
2021/06/13 02:54:24;;;;;;;27.47;24.80;;;9.00;99.90;;;;;;5034866;28;20469;-74
2021/06/13 02:56:56;;;;;;;26.73;24.53;;;8.90;99.90;;;;;;5041291;28;20487;-75
2021/06/13 02:59:31;;;;;;;34.10;25.50;;;8.90;99.90;;;;;;5042627;28;21005;-75
2021/06/13 03:02:01;;;;;;;26.47;23.67;;;8.90;99.90;;;;;;5038397;28;20487;-75
2021/06/13 03:04:28;;;;;;;29.00;24.93;;;9.00;99.90;;;;;;5035793;28;20556;-78
2021/06/13 03:06:56;;;;;;;27.97;25.30;;;8.90;99.90;;;;;;5036714;28;20826;-76
2021/06/13 03:09:23;;;;;;;31.23;24.73;;;8.90;99.90;;;;;;5036384;28;21068;-75
2021/06/13 03:11:50;;;;;;;29.70;24.53;;;8.80;99.90;;;;;;5038210;28;20467;-76
2021/06/13 03:14:18;;;;;;;28.07;25.07;;;8.90;99.90;;;;;;5034596;28;20459;-74
2021/06/13 03:16:45;;;;;;;27.77;24.10;;;8.80;99.90;;;;;;5039170;28;20656;-75
2021/06/13 03:19:13;;;;;;;34.20;25.10;;;8.80;99.90;;;;;;5035270;28;21013;-79
2021/06/13 03:21:40;;;;;;;27.93;25.20;;;8.90;99.90;;;;;;5031084;28;21245;-79
2021/06/13 03:24:08;;;;;;;28.17;24.63;;;8.80;99.90;;;;;;5033567;28;21015;-76
2021/06/13 03:26:37;;;;;;;27.87;25.03;;;8.80;99.90;;;;;;5038069;28;20552;-78
2021/06/13 03:29:04;;;;;;;28.03;25.30;;;8.80;99.90;;;;;;5036764;28;20473;-77
2021/06/13 03:31:32;;;;;;;36.23;24.07;;;8.80;99.90;;;;;;5039487;28;20910;-74
2021/06/13 03:34:00;;;;;;;31.77;26.13;;;8.80;99.90;;;;;;5040013;28;20455;-76
2021/06/13 03:36:29;;;;;;;28.30;25.07;;;8.80;99.90;;;;;;5035828;28;20472;-77
2021/06/13 03:38:58;;;;;;;33.77;25.10;;;8.80;99.90;;;;;;5031936;28;20856;-74
2021/06/13 03:41:25;;;;;;;30.93;26.20;;;8.80;99.90;;;;;;5032612;28;20458;-79
2021/06/13 03:43:53;;;;;;;26.60;23.80;;;8.80;99.90;;;;;;5037050;28;20505;-75
2021/06/13 03:46:21;;;;;;;29.00;25.00;;;8.80;99.90;;;;;;5044496;28;20493;-74
2021/06/13 03:48:52;;;;;;;28.47;25.60;;;8.80;99.90;;;;;;5034720;28;20911;-74
2021/06/13 03:51:21;;;;;;;29.40;25.00;;;8.80;99.90;;;;;;5035671;28;20470;-76
2021/06/13 03:53:54;;;;;;;34.60;25.97;;;8.80;99.90;;;;;;5034624;28;20476;-78
2021/06/13 03:56:22;;;;;;;29.73;24.87;;;8.90;99.90;;;;;;5036390;28;20463;-74
2021/06/13 03:58:51;;;;;;;27.83;24.93;;;8.90;99.90;;;;;;5031097;28;21053;-75
2021/06/13 04:01:20;;;;;;;31.67;26.50;;;8.90;99.90;;;;;;5039950;28;20466;-75
2021/06/13 04:03:50;;;;;;;40.53;25.33;;;8.90;99.90;;;;;;5033814;28;20580;-76
2021/06/13 04:06:20;;;;;;;29.07;26.00;;;8.90;99.90;;;;;;5032107;28;20469;-77
2021/06/13 04:08:48;;;;;;;32.30;27.00;;;9.00;99.90;;;;;;5030888;28;21009;-78
2021/06/13 04:11:16;;;;;;;38.37;25.50;;;9.00;99.90;;;;;;5030256;28;20468;-78
2021/06/13 04:13:44;;;;;;;30.77;27.57;;;9.10;99.90;;;;;;5032831;28;20497;-74
2021/06/13 04:16:11;;;;;;;36.47;26.47;;;9.10;99.90;;;;;;5040351;28;20460;-74
2021/06/13 04:18:39;;;;;;;29.40;26.27;;;9.10;99.90;;;;;;5038769;28;20771;-78
2021/06/13 04:21:10;;;;;;;29.33;26.27;;;9.20;99.90;;;;;;5033867;28;20464;-74
2021/06/13 04:23:39;;;;;;;32.20;26.60;;;9.20;99.90;;;;;;5033971;28;20821;-74
2021/06/13 04:26:06;;;;;;;31.47;25.83;;;9.30;99.90;;;;;;5036568;28;20477;-75
2021/06/13 04:28:33;;;;;;;30.17;27.20;;;9.30;99.90;;;;;;5037107;28;20474;-76
2021/06/13 04:31:11;;;;;;;28.70;25.80;;;9.40;99.90;;;;;;5034537;28;20457;-75
2021/06/13 04:33:39;;;;;;;28.53;25.83;;;9.50;99.90;;;;;;5038365;28;20459;-74
2021/06/13 04:36:08;;;;;;;32.20;27.33;;;9.50;99.90;;;;;;5038312;28;20466;-75
2021/06/13 04:38:36;;;;;;;29.63;26.73;;;9.50;99.90;;;;;;5031100;28;20611;-74
2021/06/13 04:41:04;;;;;;;32.20;28.53;;;9.50;99.90;;;;;;5033874;28;20464;-79
2021/06/13 04:43:31;;;;;;;31.17;27.57;;;9.60;99.90;;;;;;5042802;28;20497;-75
2021/06/13 04:45:57;;;;;;;31.60;28.17;;;9.60;99.90;;;;;;4997793;28;20478;-75
2021/06/13 04:48:24;;;;;;;35.37;27.90;;;9.70;99.90;;;;;;4992724;28;21238;-75
2021/06/13 04:50:52;;;;;;;32.17;28.63;;;9.80;99.90;;;;;;4997700;28;21192;-77
2021/06/13 04:53:57;;;;;;;32.93;28.30;;;9.90;99.90;;;;;;4998515;28;20505;-78
2021/06/13 04:56:33;;;;;;;31.53;28.27;;;9.90;99.90;;;;;;4995161;28;20464;-75
2021/06/13 04:59:00;;;;;;;34.70;27.73;;;10.00;99.90;;;;;;4997544;28;20472;-74
2021/06/13 05:01:27;;;;;;;42.67;28.13;;;10.20;99.90;;;;;;4995130;28;20855;-76
2021/06/13 05:03:54;;;;;;;31.40;28.00;;;10.30;99.90;;;;;;4996037;28;20590;-74
2021/06/13 05:06:21;;;;;;;32.80;29.33;;;10.50;99.90;;;;;;4999496;28;20689;-75
2021/06/13 05:08:50;;;;;;;35.93;28.33;;;10.50;99.90;;;;;;5000467;28;20477;-75
2021/06/13 05:11:18;;;;;;;36.33;29.47;;;10.60;99.90;;;;;;4995819;28;20464;-74
2021/06/13 05:13:45;;;;;;;38.93;29.20;;;10.60;99.90;;;;;;4991171;28;20468;-77
2021/06/13 05:16:11;;;;;;;41.67;29.80;;;10.70;99.90;;;;;;4993995;28;20704;-76
2021/06/13 05:18:38;;;;;;;42.53;29.57;;;10.80;99.90;;;;;;4994411;28;20463;-74
2021/06/13 05:21:06;;;;;;;41.13;30.57;;;10.90;99.90;;;;;;4994377;28;21255;-77
2021/06/13 05:23:33;;;;;;;41.37;30.07;;;11.00;99.90;;;;;;4992319;28;20536;-76
2021/06/13 05:26:02;;;;;;;33.00;28.90;;;11.10;99.90;;;;;;4996531;28;20458;-76
2021/06/13 05:28:29;;;;;;;38.40;30.43;;;11.10;99.90;;;;;;4992949;28;20557;-75
2021/06/13 05:30:56;;;;;;;32.70;29.37;;;11.30;99.90;;;;;;4999490;28;20464;-76
2021/06/13 05:33:24;;;;;;;40.97;29.60;;;11.40;99.90;;;;;;4998720;28;20901;-76
2021/06/13 05:35:52;;;;;;;40.83;29.63;;;11.50;99.90;;;;;;4999262;28;20539;-75
2021/06/13 05:38:20;;;;;;;42.03;30.20;;;11.50;99.90;;;;;;4993903;28;20471;-78
2021/06/13 05:40:49;;;;;;;46.60;30.40;;;11.70;99.90;;;;;;4995501;28;20494;-76
2021/06/13 05:43:17;;;;;;;42.93;29.13;;;11.80;99.90;;;;;;4991813;28;20572;-74
2021/06/13 05:45:44;;;;;;;40.93;29.70;;;11.90;99.90;;;;;;5028035;28;21079;-75
2021/06/13 05:48:12;;;;;;;36.23;29.20;;;12.00;99.90;;;;;;5034204;28;20462;-74
2021/06/13 05:50:39;;;;;;;35.13;28.87;;;12.10;99.90;;;;;;5034609;28;20476;-76
2021/06/13 05:53:08;;;;;;;34.43;29.07;;;12.20;99.90;;;;;;5036706;28;20472;-75
2021/06/13 05:55:36;;;;;;;50.83;30.03;;;12.30;99.90;;;;;;5038100;28;20986;-75
2021/06/13 05:58:03;;;;;;;38.67;28.90;;;12.40;99.90;;;;;;5039944;28;20463;-79
2021/06/13 06:00:33;;;;;;;46.83;30.30;;;12.60;99.90;;;;;;5038555;28;20476;-74
2021/06/13 06:03:01;;;;;;;35.70;29.20;;;12.60;99.90;;;;;;5037734;28;20507;-74
2021/06/13 06:05:29;;;;;;;32.43;27.87;;;12.70;99.90;;;;;;5039716;28;20467;-76
2021/06/13 06:07:55;;;;;;;40.67;28.53;;;12.90;99.90;;;;;;5040228;28;20537;-76
2021/06/13 06:10:25;;;;;;;30.00;26.93;;;13.10;99.90;;;;;;5041605;28;20471;-77
2021/06/13 06:12:53;;;;;;;32.03;27.97;;;13.10;99.90;;;;;;5038449;28;20467;-73
2021/06/13 06:15:21;;;;;;;33.97;28.87;;;13.20;99.90;;;;;;5033501;28;20471;-74
2021/06/13 06:17:51;;;;;;;30.20;26.80;;;13.30;99.90;;;;;;5041885;28;20471;-75
2021/06/13 06:20:19;;;;;;;29.03;25.90;;;13.40;99.90;;;;;;5043316;28;20960;-75
2021/06/13 06:22:46;;;;;;;27.50;24.73;;;13.50;99.90;;;;;;5040345;28;20470;-74
2021/06/13 06:25:14;;;;;;;38.37;24.00;;;13.70;99.90;;;;;;5040147;28;20460;-75
2021/06/13 06:27:41;;;;;;;27.00;20.20;;;13.80;99.90;;;;;;5032211;28;20456;-75
2021/06/13 06:30:13;;;;;;;32.23;21.80;;;14.00;99.90;;;;;;5036909;28;20461;-76
2021/06/13 06:32:41;;;;;;;27.00;21.80;;;14.20;99.90;;;;;;5041951;28;22414;-75
2021/06/13 06:35:15;;;;;;;23.43;20.67;;;14.40;99.90;;;;;;5039988;28;20456;-74
2021/06/13 06:37:42;;;;;;;26.43;21.70;;;14.60;99.90;;;;;;5041511;28;20471;-74
2021/06/13 06:40:13;;;;;;;30.90;22.00;;;14.80;99.90;;;;;;5038007;28;20456;-77
2021/06/13 06:42:40;;;;;;;21.70;19.90;;;15.00;99.90;;;;;;5035017;28;20553;-75
2021/06/13 06:45:09;;;;;;;27.43;21.80;;;15.30;99.90;;;;;;5034924;28;20488;-75
2021/06/13 06:47:36;;;;;;;33.63;21.10;;;15.50;99.90;;;;;;5035271;28;21002;-75
2021/06/13 06:50:04;;;;;;;22.17;19.33;;;15.60;99.90;;;;;;5041173;28;20475;-75
2021/06/13 06:52:34;;;;;;;24.20;19.50;;;15.60;99.90;;;;;;5039253;28;20456;-74
2021/06/13 06:55:01;;;;;;;24.23;20.43;;;15.90;99.90;;;;;;5034184;28;20457;-73
2021/06/13 06:57:28;;;;;;;22.57;19.30;;;16.00;99.90;;;;;;5036792;28;20464;-75
2021/06/13 06:59:55;;;;;;;24.07;20.37;;;16.10;99.90;;;;;;5033332;28;20455;-75
2021/06/13 07:02:22;;;;;;;24.17;20.90;;;16.30;99.90;;;;;;5028897;28;20477;-74
2021/06/13 07:04:49;;;;;;;21.37;19.20;;;16.20;99.90;;;;;;5039619;28;20492;-74
2021/06/13 07:07:16;;;;;;;26.00;18.87;;;16.20;99.90;;;;;;5035846;28;20475;-75
2021/06/13 07:09:44;;;;;;;21.80;19.53;;;16.40;99.90;;;;;;5037175;28;20570;-74
2021/06/13 07:12:11;;;;;;;19.43;17.53;;;16.50;99.90;;;;;;5035936;28;21046;-74
2021/06/13 07:14:38;;;;;;;21.30;18.30;;;16.70;99.90;;;;;;5035930;28;20471;-73
2021/06/13 07:17:05;;;;;;;19.30;17.30;;;16.90;99.90;;;;;;5035383;28;20472;-73
2021/06/13 07:19:32;;;;;;;19.70;17.63;;;16.90;99.90;;;;;;5037275;28;20486;-74
2021/06/13 07:22:00;;;;;;;23.70;18.80;;;17.10;99.90;;;;;;5042127;28;20463;-74
2021/06/13 07:24:27;;;;;;;25.93;18.73;;;17.20;99.90;;;;;;5036612;28;20488;-74
2021/06/13 07:26:55;;;;;;;20.50;18.60;;;17.40;99.90;;;;;;5033893;28;20468;-73
2021/06/13 07:29:22;;;;;;;19.57;17.63;;;17.50;99.90;;;;;;5037070;28;20505;-73
2021/06/13 07:31:49;;;;;;;19.77;18.13;;;17.60;99.90;;;;;;5040740;28;20468;-74
2021/06/13 07:34:16;;;;;;;18.33;16.80;;;17.70;99.90;;;;;;5037702;28;20457;-75
2021/06/13 07:36:43;;;;;;;18.00;16.50;;;18.10;99.90;;;;;;5039289;28;20657;-74
2021/06/13 07:39:10;;;;;;;19.47;17.40;;;18.30;99.90;;;;;;5036352;28;20483;-73
2021/06/13 07:41:37;;;;;;;19.53;17.77;;;18.20;99.90;;;;;;5033811;28;20474;-75
2021/06/13 07:44:07;;;;;;;18.40;16.77;;;18.40;99.90;;;;;;5036415;28;20510;-74
2021/06/13 07:46:35;;;;;;;20.17;18.20;;;18.70;99.90;;;;;;5038029;28;20474;-75
2021/06/13 07:49:02;;;;;;;19.97;17.87;;;18.90;99.90;;;;;;5039611;28;20466;-74
2021/06/13 07:51:29;;;;;;;21.30;19.23;;;18.80;99.90;;;;;;5036967;28;20470;-73
2021/06/13 07:53:56;;;;;;;19.83;18.23;;;18.60;99.90;;;;;;5038265;28;20468;-74
2021/06/13 07:56:23;;;;;;;21.07;19.23;;;18.70;99.90;;;;;;5036327;28;20486;-74
2021/06/13 07:58:50;;;;;;;19.47;17.77;;;18.90;99.90;;;;;;5039232;28;20460;-74
2021/06/13 08:01:18;;;;;;;28.30;17.97;;;18.80;99.90;;;;;;5032039;28;20463;-74
2021/06/13 08:03:45;;;;;;;20.33;18.20;;;19.10;99.90;;;;;;5036029;28;20495;-74
2021/06/13 08:06:12;;;;;;;21.13;18.90;;;19.60;99.90;;;;;;5036863;28;20471;-75
2021/06/13 08:08:39;;;;;;;18.77;17.17;;;20.60;99.90;;;;;;5035201;28;21062;-74
2021/06/13 08:11:06;;;;;;;19.13;17.13;;;21.40;99.90;;;;;;5037456;28;20971;-74
2021/06/13 08:13:33;;;;;;;18.47;16.90;;;21.30;99.90;;;;;;5036670;28;20585;-73
2021/06/13 08:15:59;;;;;;;18.33;16.63;;;21.70;99.90;;;;;;5031086;28;20467;-74
2021/06/13 08:18:28;;;;;;;21.63;18.93;;;21.00;99.90;;;;;;5043021;28;20452;-74
2021/06/13 08:20:55;;;;;;;20.60;18.73;;;20.40;99.90;;;;;;5034373;28;20464;-75
2021/06/13 08:23:22;;;;;;;20.70;17.50;;;20.70;99.90;;;;;;5033996;28;20474;-74
2021/06/13 08:25:49;;;;;;;18.17;16.50;;;20.60;99.90;;;;;;5035669;28;20941;-74
2021/06/13 08:28:18;;;;;;;19.60;17.90;;;21.00;99.90;;;;;;5037880;28;21037;-73
2021/06/13 08:30:45;;;;;;;19.50;17.60;;;21.70;99.90;;;;;;5040897;28;20463;-74
2021/06/13 08:33:12;;;;;;;18.83;16.83;;;22.20;99.90;;;;;;5030492;28;20460;-74
2021/06/13 08:35:41;;;;;;;18.03;16.50;;;22.80;99.90;;;;;;5032730;28;20471;-74
2021/06/13 08:38:08;;;;;;;18.93;17.07;;;23.00;99.90;;;;;;5034843;28;20561;-74
2021/06/13 08:40:35;;;;;;;17.40;15.90;;;23.80;99.20;;;;;;5038507;28;20471;-74
2021/06/13 08:43:03;;;;;;;18.23;16.83;;;24.70;97.80;;;;;;5035656;28;20463;-75
2021/06/13 08:45:32;;;;;;;19.20;17.60;;;25.50;97.20;;;;;;5037585;28;21044;-73
2021/06/13 08:48:01;;;;;;;17.17;15.83;;;25.20;96.20;;;;;;5033411;28;20934;-75
2021/06/13 08:50:33;;;;;;;18.07;16.33;;;25.70;95.00;;;;;;5034470;28;20464;-74
2021/06/13 08:53:03;;;;;;;19.33;17.37;;;25.80;93.90;;;;;;5037931;28;20465;-75
2021/06/13 08:55:32;;;;;;;18.57;16.90;;;26.60;92.70;;;;;;5037635;28;20901;-74
2021/06/13 08:57:59;;;;;;;18.37;16.63;;;26.50;91.00;;;;;;5036000;28;20466;-74
2021/06/13 09:00:28;;;;;;;18.17;16.23;;;27.20;90.40;;;;;;5033930;28;20463;-74
2021/06/13 09:02:55;;;;;;;18.77;16.93;;;27.70;86.70;;;;;;5035746;28;21100;-75
2021/06/13 09:05:23;;;;;;;18.07;16.47;;;27.90;85.60;;;;;;5031606;28;20487;-74
2021/06/13 09:07:52;;;;;;;19.77;17.80;;;28.00;83.60;;;;;;5037844;28;20491;-75
2021/06/13 09:10:25;;;;;;;19.37;16.60;;;27.00;83.90;;;;;;5035975;28;20469;-74
2021/06/13 09:12:55;;;;;;;17.80;16.30;;;26.10;84.20;;;;;;5037617;28;20456;-73
2021/06/13 09:15:36;;;;;;;18.97;17.17;;;25.70;86.30;;;;;;5031707;28;20464;-73
2021/06/13 09:18:03;;;;;;;18.90;17.30;;;26.80;82.40;;;;;;5033636;28;20470;-74
2021/06/13 09:20:30;;;;;;;18.87;17.23;;;27.00;82.50;;;;;;5036800;28;20982;-75
2021/06/13 09:23:10;;;;;;;19.20;17.60;;;26.00;84.30;;;;;;5036127;28;20737;-74
2021/06/13 09:25:41;;;;;;;17.97;16.77;;;26.50;83.90;;;;;;5037189;28;21133;-74
2021/06/13 09:28:11;;;;;;;18.67;17.10;;;27.20;81.20;;;;;;5039834;28;20464;-73
2021/06/13 09:30:40;;;;;;;17.87;16.37;;;27.70;80.10;;;;;;5042354;28;20834;-73
2021/06/13 09:33:17;;;;;;;18.67;16.97;;;26.90;81.70;;;;;;5037814;28;20475;-74
2021/06/13 09:35:45;;;;;;;17.20;15.80;;;25.90;82.60;;;;;;5030696;28;20483;-74
2021/06/13 09:38:16;;;;;;;17.70;16.30;;;26.40;82.40;;;;;;5041041;28;20474;-74
2021/06/13 09:40:48;;;;;;;16.57;15.13;;;26.50;80.20;;;;;;5042099;28;20869;-74
2021/06/13 09:43:18;;;;;;;17.13;15.63;;;27.50;78.90;;;;;;5039836;28;20826;-74
2021/06/13 09:45:50;;;;;;;16.73;15.13;;;27.50;77.00;;;;;;5040629;28;20499;-74
2021/06/13 09:48:18;;;;;;;16.93;15.23;;;26.90;77.10;;;;;;5030439;28;20469;-74
2021/06/13 09:50:47;;;;;;;17.87;16.07;;;27.00;77.80;;;;;;5038684;28;20954;-73
2021/06/13 09:53:44;;;;;;;17.33;16.10;;;26.10;79.40;;;;;;5035476;28;20465;-73
2021/06/13 09:56:16;;;;;;;17.73;16.23;;;25.50;79.10;;;;;;5008066;28;20543;-73
2021/06/13 09:58:49;;;;;;;17.13;15.43;;;25.30;80.70;;;;;;5043621;28;20489;-74
2021/06/13 10:01:16;;;;;;;16.47;15.03;;;25.20;83.30;;;;;;5039475;28;20494;-74
2021/06/13 10:03:46;;;;;;;16.83;15.30;;;25.70;82.00;;;;;;5028955;28;20502;-73
2021/06/13 10:06:14;;;;;;;16.00;14.60;;;26.20;81.00;;;;;;5034845;28;21033;-74
2021/06/13 10:08:42;;;;;;;16.93;15.43;;;25.50;81.30;;;;;;5038887;28;20511;-74
2021/06/13 10:11:09;;;;;;;17.13;15.40;;;25.90;82.70;;;;;;5042309;28;20465;-74
2021/06/13 10:13:49;;;;;;;16.47;15.17;;;26.80;79.10;;;;;;5040648;28;20494;-74
2021/06/13 10:16:31;;;;;;;16.73;15.10;;;26.40;78.10;;;;;;5039863;28;20827;-74
2021/06/13 10:19:00;;;;;;;16.57;15.30;;;26.30;80.20;;;;;;5037097;28;20487;-74
2021/06/13 10:21:30;;;;;;;16.60;15.30;;;26.80;78.60;;;;;;5032425;28;20539;-74
2021/06/13 10:23:59;;;;;;;15.70;14.03;;;27.30;75.20;;;;;;5040858;28;20476;-74
2021/06/13 10:26:27;;;;;;;17.17;15.57;;;27.80;75.60;;;;;;5037151;28;20500;-74
2021/06/13 10:28:56;;;;;;;15.80;14.60;;;26.70;73.90;;;;;;5042519;28;20461;-74
2021/06/13 10:31:23;;;;;;;15.00;13.70;;;27.00;76.00;;;;;;5041330;28;20471;-73
2021/06/13 10:33:51;;;;;;;16.77;15.20;;;27.40;73.50;;;;;;5037782;28;20448;-74
2021/06/13 10:36:18;;;;;;;15.30;14.00;;;27.00;72.20;;;;;;5037848;28;20600;-74
2021/06/13 10:38:45;;;;;;;14.20;12.80;;;27.30;76.80;;;;;;5039630;28;20560;-74
2021/06/13 10:41:12;;;;;;;15.73;14.50;;;28.00;72.20;;;;;;5041738;28;20557;-73
2021/06/13 10:43:40;;;;;;;15.67;14.20;;;27.60;72.00;;;;;;5035643;28;20471;-74
2021/06/13 10:46:11;;;;;;;14.87;13.83;;;27.60;72.30;;;;;;5036471;28;20500;-74
2021/06/13 10:48:49;;;;;;;15.73;14.23;;;27.00;74.10;;;;;;5039835;28;20990;-75
2021/06/13 10:51:31;;;;;;;13.40;12.50;;;26.60;73.30;;;;;;5037686;28;20471;-74
2021/06/13 10:54:27;;;;;;;15.47;14.07;;;26.10;73.60;;;;;;5031185;28;20492;-74
2021/06/13 10:56:57;;;;;;;15.60;14.20;;;26.50;75.60;;;;;;5039933;28;20465;-74
2021/06/13 10:59:24;;;;;;;16.53;14.90;;;26.00;73.40;;;;;;5040550;28;20498;-74
2021/06/13 11:02:03;;;;;;;16.07;14.40;;;25.20;75.50;;;;;;5036909;28;20484;-74
2021/06/13 11:04:44;;;;;;;18.47;13.40;;;25.30;75.10;;;;;;5035954;28;20456;-74
2021/06/13 11:07:12;;;;;;;14.73;13.43;;;25.50;77.80;;;;;;5032899;28;20820;-74
2021/06/13 11:10:13;;;;;;;16.10;14.57;;;26.30;76.60;;;;;;5036700;28;20459;-73
2021/06/13 11:12:41;;;;;;;16.83;15.20;;;26.50;74.50;;;;;;5035154;28;20902;-73
2021/06/13 11:15:09;;;;;;;16.70;15.20;;;27.30;74.80;;;;;;5037167;28;20884;-74
2021/06/13 11:17:55;;;;;;;15.43;13.83;;;27.80;73.20;;;;;;5039831;28;20460;-74
2021/06/13 11:20:35;;;;;;;15.23;14.13;;;28.70;69.40;;;;;;5036635;28;20465;-74
2021/06/13 11:23:04;;;;;;;15.40;14.43;;;28.90;67.20;;;;;;5031098;28;20463;-74
2021/06/13 11:25:32;;;;;;;15.43;13.87;;;28.50;66.00;;;;;;5034313;28;20480;-74
2021/06/13 11:28:09;;;;;;;14.93;13.63;;;28.70;66.00;;;;;;5026915;28;20463;-74
2021/06/13 11:30:40;;;;;;;15.80;14.60;;;28.70;66.20;;;;;;5035268;28;20464;-74
2021/06/13 11:33:08;;;;;;;15.73;14.40;;;28.80;65.40;;;;;;5034573;28;20472;-74
2021/06/13 11:35:37;;;;;;;15.83;14.43;;;28.50;66.60;;;;;;5037920;28;20465;-74
2021/06/13 11:38:24;;;;;;;15.60;14.50;;;28.60;63.00;;;;;;5038498;28;20465;-74
2021/06/13 11:40:53;;;;;;;15.10;13.90;;;28.40;63.70;;;;;;5037666;28;20542;-74
2021/06/13 11:43:21;;;;;;;17.80;14.30;;;28.40;65.00;;;;;;5033419;28;20470;-74
2021/06/13 11:45:52;;;;;;;15.33;14.13;;;28.10;65.00;;;;;;5037804;28;20495;-74
2021/06/13 11:48:23;;;;;;;15.70;14.40;;;28.60;65.40;;;;;;5035182;28;21029;-73
2021/06/13 11:51:09;;;;;;;15.27;14.23;;;29.80;63.10;;;;;;5034015;28;20456;-74
2021/06/13 11:53:58;;;;;;;16.37;14.93;;;30.50;62.70;;;;;;5031202;28;20472;-74
2021/06/13 11:56:43;;;;;;;17.13;15.60;;;30.80;60.30;;;;;;5028945;28;20835;-74
2021/06/13 11:59:15;;;;;;;14.70;13.50;;;30.20;60.00;;;;;;5036650;28;20533;-74
2021/06/13 12:01:46;;;;;;;15.90;14.60;;;30.20;61.10;;;;;;5032217;28;20467;-74
2021/06/13 12:04:16;;;;;;;15.90;14.47;;;29.50;58.30;;;;;;5028641;28;23061;-74
2021/06/13 12:06:44;;;;;;;16.17;14.87;;;28.50;62.10;;;;;;5038054;28;20514;-74
2021/06/13 12:09:15;;;;;;;16.50;15.30;;;28.80;61.70;;;;;;5038262;28;20460;-74
2021/06/13 12:11:49;;;;;;;16.00;14.90;;;29.10;59.30;;;;;;5033618;28;20461;-74
2021/06/13 12:14:18;;;;;;;15.70;14.60;;;29.70;59.30;;;;;;5038475;28;20808;-74
2021/06/13 12:16:46;;;;;;;16.40;15.20;;;29.80;58.30;;;;;;5039906;28;20824;-74
2021/06/13 12:19:14;;;;;;;16.10;14.90;;;29.30;58.00;;;;;;5039369;28;20826;-74
2021/06/13 12:21:42;;;;;;;16.63;15.37;;;30.20;57.20;;;;;;5035458;28;20838;-74
2021/06/13 12:24:22;;;;;;;17.43;15.70;;;30.70;57.60;;;;;;5036454;28;20467;-73
2021/06/13 12:29:37;;;;;;;16.63;15.43;;;30.10;56.10;;;;;;5036807;28;20459;-75
2021/06/13 12:32:12;;;;;;;16.47;15.13;;;30.30;56.30;;;;;;5040775;28;20960;-74
2021/06/13 12:34:41;;;;;;;16.03;14.97;;;29.00;56.70;;;;;;5040606;28;20823;-73
2021/06/13 12:37:16;;;;;;;16.00;14.80;;;29.60;58.20;;;;;;5033773;28;20469;-73
2021/06/13 12:39:53;;;;;;;15.40;13.97;;;29.60;55.30;;;;;;5035408;28;20448;-74
2021/06/13 12:42:20;;;;;;;15.60;14.20;;;29.90;56.10;;;;;;5033004;28;20460;-74
2021/06/13 12:44:47;;;;;;;15.77;14.43;;;29.80;56.80;;;;;;5035929;28;20491;-73